Time;durP1;ratioP1;P1;durP2;ratioP2;P2;SDS_P1;SDS_P2;PMS_P1;PMS_P2;Temp;Humidity;BMP_temperature;BMP_pressure;BME280_temperature;BME280_humidity;BME280_pressure;Samples;Min_cycle;Max_cycle;Signal;HPM_P1;HPM_P2
2020/12/06 00:01:07;;;;;;;20.87;14.07;;;1.30;96.30;;;;;;4993784;28;20173;-80
2020/12/06 00:03:35;;;;;;;22.30;15.17;;;1.10;96.30;;;;;;4993375;28;20189;-80
2020/12/06 00:06:02;;;;;;;18.57;12.57;;;1.20;96.30;;;;;;4993363;28;20261;-80
2020/12/06 00:08:27;;;;;;;20.80;13.13;;;1.10;96.30;;;;;;4993375;28;20496;-80
2020/12/06 00:10:53;;;;;;;17.97;12.43;;;1.00;96.30;;;;;;4992140;28;20528;-80
2020/12/06 00:13:18;;;;;;;23.57;14.07;;;0.90;96.30;;;;;;4992870;28;20520;-80
2020/12/06 00:15:44;;;;;;;23.80;14.37;;;1.20;96.30;;;;;;4996496;28;20178;-80
2020/12/06 00:18:09;;;;;;;19.70;12.70;;;1.00;96.30;;;;;;4995198;28;20189;-80
2020/12/06 00:20:35;;;;;;;16.57;12.07;;;1.00;96.30;;;;;;4996785;28;20173;-80
2020/12/06 00:23:00;;;;;;;18.70;12.43;;;0.90;96.30;;;;;;4994936;28;20193;-80
2020/12/06 00:25:26;;;;;;;18.73;12.77;;;0.90;96.30;;;;;;4996387;28;20185;-80
2020/12/06 00:27:52;;;;;;;20.87;12.27;;;0.80;96.30;;;;;;4996590;28;20174;-80
2020/12/06 00:30:17;;;;;;;17.80;12.93;;;0.80;96.30;;;;;;4996307;28;21070;-80
2020/12/06 00:32:43;;;;;;;22.80;14.50;;;0.90;96.30;;;;;;4995630;28;20693;-80
2020/12/06 00:35:09;;;;;;;20.23;14.60;;;0.80;96.30;;;;;;4995749;28;20181;-80
2020/12/06 00:37:37;;;;;;;24.40;15.83;;;1.00;96.30;;;;;;4995643;28;20205;-80
2020/12/06 00:40:07;;;;;;;23.70;16.13;;;1.50;96.30;;;;;;4994263;28;21010;-80
2020/12/06 00:42:33;;;;;;;23.40;16.37;;;1.70;96.30;;;;;;5003786;28;20457;-80
2020/12/06 00:44:58;;;;;;;24.83;17.20;;;1.70;96.30;;;;;;5000028;28;20412;-80
2020/12/06 00:47:24;;;;;;;24.60;16.37;;;1.90;96.30;;;;;;4999685;28;20475;-80
2020/12/06 00:49:50;;;;;;;21.07;13.83;;;1.80;96.30;;;;;;4998268;28;20180;-80
2020/12/06 00:52:15;;;;;;;19.60;15.07;;;1.80;96.30;;;;;;4996026;28;20197;-80
2020/12/06 00:54:41;;;;;;;24.63;16.00;;;2.20;96.30;;;;;;4997124;28;20289;-80
2020/12/06 00:57:06;;;;;;;19.30;15.03;;;2.10;96.30;;;;;;4995819;28;20201;-80
2020/12/06 00:59:32;;;;;;;20.73;14.77;;;2.00;96.30;;;;;;4995380;28;20699;-80
2020/12/06 05:02:15;;;;;;;12.27;7.30;;;6.70;96.30;;;;;;5160026;23;20481;-80
2020/12/06 05:04:42;;;;;;;10.10;6.77;;;6.60;96.30;;;;;;4997419;28;20460;-80
2020/12/06 05:07:09;;;;;;;9.77;7.30;;;6.60;96.30;;;;;;4999027;28;20496;-80
2020/12/06 05:09:37;;;;;;;9.60;8.10;;;6.60;96.30;;;;;;4999494;28;20791;-80
2020/12/06 05:12:04;;;;;;;11.70;8.07;;;6.60;96.30;;;;;;4998903;28;20429;-80
2020/12/06 05:14:30;;;;;;;11.93;8.43;;;6.60;96.30;;;;;;4997487;28;20409;-80
2020/12/06 05:16:56;;;;;;;14.00;9.03;;;6.60;96.30;;;;;;4995873;28;20526;-80
2020/12/06 05:19:25;;;;;;;11.43;8.90;;;6.60;96.30;;;;;;4995802;28;20420;-80
2020/12/06 05:21:50;;;;;;;11.13;8.10;;;6.50;96.30;;;;;;5009826;28;20491;-79
2020/12/06 05:24:16;;;;;;;12.03;7.87;;;6.50;96.30;;;;;;4995900;28;20905;-79
2020/12/06 05:26:41;;;;;;;11.77;8.43;;;6.40;96.30;;;;;;4995666;28;20188;-80
2020/12/06 05:29:07;;;;;;;10.10;8.47;;;6.60;96.30;;;;;;4995828;28;20543;-79
2020/12/06 05:31:32;;;;;;;10.00;8.77;;;6.60;96.30;;;;;;4995406;28;20197;-81
2020/12/06 05:33:58;;;;;;;11.53;8.53;;;6.50;96.30;;;;;;4994553;28;20656;-80
2020/12/06 05:36:23;;;;;;;13.60;7.43;;;6.50;96.30;;;;;;4995092;28;20282;-80
2020/12/06 05:38:49;;;;;;;18.57;7.60;;;6.50;96.30;;;;;;5010512;28;20169;-79
2020/12/06 05:41:15;;;;;;;11.73;8.27;;;6.50;96.30;;;;;;4995201;28;20196;-80
2020/12/06 05:43:41;;;;;;;11.17;8.27;;;6.50;96.30;;;;;;4994643;28;20526;-80
2020/12/06 05:46:09;;;;;;;11.10;9.07;;;6.50;96.30;;;;;;4995298;28;20181;-80
2020/12/06 05:48:35;;;;;;;11.00;7.90;;;6.50;96.30;;;;;;4995577;28;20416;-80
2020/12/06 05:51:01;;;;;;;12.07;7.73;;;6.40;96.30;;;;;;4995827;28;20437;-80
2020/12/06 05:53:28;;;;;;;12.23;7.27;;;6.60;96.30;;;;;;4994981;28;20476;-80
2020/12/06 05:56:05;;;;;;;11.27;8.30;;;6.70;96.30;;;;;;4994997;28;20459;-80
2020/12/06 05:58:33;;;;;;;10.20;8.53;;;6.60;96.30;;;;;;4994770;28;20401;-80
2020/12/06 06:01:00;;;;;;;11.13;7.57;;;6.60;96.30;;;;;;4995202;28;20487;-80
2020/12/06 06:03:28;;;;;;;9.60;7.37;;;6.50;96.30;;;;;;4992436;28;20405;-81
2020/12/06 06:05:56;;;;;;;10.07;8.10;;;6.50;96.30;;;;;;4994743;28;20818;-80
2020/12/06 06:08:25;;;;;;;13.43;8.50;;;6.50;96.30;;;;;;4993144;28;20417;-81
2020/12/06 06:11:30;;;;;;;11.50;8.00;;;6.50;96.30;;;;;;4989242;28;20480;-79
2020/12/06 06:14:06;;;;;;;11.57;8.00;;;6.60;96.30;;;;;;4993658;28;20431;-80
2020/12/06 06:16:33;;;;;;;13.23;9.43;;;6.60;96.30;;;;;;4995336;28;20460;-80
2020/12/06 06:19:00;;;;;;;10.40;8.00;;;6.70;96.30;;;;;;4994376;28;20420;-80
2020/12/06 06:21:41;;;;;;;10.03;6.77;;;6.80;96.30;;;;;;4994089;28;20436;-81
2020/12/06 06:24:10;;;;;;;10.93;8.23;;;6.80;96.30;;;;;;4993411;28;20471;-80
2020/12/06 06:26:38;;;;;;;11.57;9.50;;;6.90;96.30;;;;;;4994111;28;20420;-79
2020/12/06 06:29:11;;;;;;;11.03;8.83;;;6.80;96.30;;;;;;5004833;28;20432;-80
2020/12/06 06:31:38;;;;;;;14.03;9.63;;;6.70;96.30;;;;;;4993553;28;20495;-80
2020/12/06 06:34:05;;;;;;;14.63;10.33;;;6.70;96.30;;;;;;4989119;28;20434;-79
2020/12/06 06:36:31;;;;;;;12.93;8.60;;;6.60;96.30;;;;;;4993197;28;20461;-79
2020/12/06 06:38:57;;;;;;;11.97;9.00;;;6.60;96.30;;;;;;4994259;28;20472;-79
2020/12/06 06:41:26;;;;;;;11.63;9.30;;;6.60;96.30;;;;;;4992407;28;20861;-79
2020/12/06 06:43:59;;;;;;;12.33;10.13;;;6.60;96.30;;;;;;4992606;28;20200;-78
2020/12/06 06:46:33;;;;;;;12.97;10.87;;;6.60;96.30;;;;;;4993061;28;20425;-79
2020/12/06 06:49:12;;;;;;;13.73;11.17;;;6.50;96.30;;;;;;4993002;28;20507;-81
2020/12/06 06:51:38;;;;;;;13.30;10.67;;;6.50;96.30;;;;;;4986827;28;20433;-80
2020/12/06 06:54:09;;;;;;;19.30;11.93;;;6.50;96.30;;;;;;4992321;28;20443;-79
2020/12/06 06:56:50;;;;;;;14.40;12.20;;;6.50;96.30;;;;;;4993407;28;20456;-77
2020/12/06 06:59:29;;;;;;;13.80;11.30;;;6.40;96.30;;;;;;4993969;28;20417;-81
2020/12/06 07:01:55;;;;;;;16.10;11.73;;;6.50;96.30;;;;;;4992960;28;20460;-81
2020/12/06 07:04:21;;;;;;;13.63;12.20;;;6.50;96.30;;;;;;4992256;28;20527;-79
2020/12/06 07:06:53;;;;;;;13.60;10.87;;;6.40;96.30;;;;;;4990584;28;20185;-78
2020/12/06 07:09:24;;;;;;;16.40;11.97;;;6.50;96.30;;;;;;4991597;28;20242;-78
2020/12/06 07:11:50;;;;;;;24.70;13.17;;;6.50;96.30;;;;;;4990357;28;20786;-77
2020/12/06 07:14:16;;;;;;;15.80;12.50;;;6.40;96.30;;;;;;4990778;28;20432;-77
2020/12/06 07:16:41;;;;;;;12.20;10.40;;;6.40;96.30;;;;;;4991441;28;20456;-77
2020/12/06 07:19:07;;;;;;;16.20;12.37;;;6.40;96.30;;;;;;4991822;28;20185;-78
2020/12/06 07:21:35;;;;;;;14.43;11.27;;;6.40;96.30;;;;;;4990138;28;20531;-79
2020/12/06 07:24:01;;;;;;;21.77;11.80;;;6.40;96.30;;;;;;4990299;28;20780;-77
2020/12/06 07:26:27;;;;;;;14.93;11.20;;;6.50;96.30;;;;;;4994237;28;20420;-78
2020/12/06 07:28:54;;;;;;;15.73;12.30;;;6.40;96.30;;;;;;4995651;28;20490;-78
2020/12/06 07:31:19;;;;;;;11.47;9.40;;;6.40;96.30;;;;;;4994320;28;20436;-78
2020/12/06 07:33:45;;;;;;;16.80;11.60;;;6.40;96.30;;;;;;4990301;28;20424;-78
2020/12/06 07:36:11;;;;;;;14.30;11.70;;;6.40;96.30;;;;;;4993633;28;20554;-78
2020/12/06 07:38:36;;;;;;;14.20;12.47;;;6.40;96.30;;;;;;4995559;28;20185;-77
2020/12/06 07:41:03;;;;;;;16.33;12.60;;;6.40;96.30;;;;;;4995690;28;20210;-78
2020/12/06 07:43:29;;;;;;;18.70;12.43;;;6.30;96.30;;;;;;4996396;28;20194;-77
2020/12/06 07:45:55;;;;;;;15.40;12.33;;;6.40;96.30;;;;;;4996672;28;20744;-78
2020/12/06 07:48:22;;;;;;;15.90;12.67;;;6.40;96.30;;;;;;4996689;28;20483;-78
2020/12/06 07:50:47;;;;;;;15.37;12.10;;;6.40;96.30;;;;;;4996423;28;20673;-78
2020/12/06 07:53:13;;;;;;;15.43;12.10;;;6.40;96.30;;;;;;4996354;28;20415;-78
2020/12/06 07:55:41;;;;;;;13.93;11.83;;;6.40;96.30;;;;;;4996555;28;20180;-78
2020/12/06 07:58:13;;;;;;;13.70;12.17;;;6.50;96.30;;;;;;4996489;28;20233;-78
2020/12/06 08:00:39;;;;;;;15.17;12.37;;;6.50;96.30;;;;;;4995055;28;20491;-78
2020/12/06 08:03:06;;;;;;;16.03;11.50;;;6.50;96.30;;;;;;4994823;28;20409;-78
2020/12/06 08:05:42;;;;;;;14.13;10.77;;;6.50;96.30;;;;;;4996594;28;20417;-76
2020/12/06 08:08:18;;;;;;;14.03;11.27;;;6.50;96.30;;;;;;4996630;28;20409;-78
2020/12/06 08:10:50;;;;;;;13.40;10.70;;;6.60;96.30;;;;;;4994786;28;20447;-76
2020/12/06 08:13:16;;;;;;;18.33;12.00;;;6.60;96.30;;;;;;4996052;28;20443;-78
2020/12/06 08:15:42;;;;;;;15.77;11.47;;;6.60;96.30;;;;;;4996464;28;20413;-78
2020/12/06 08:18:12;;;;;;;13.67;11.30;;;6.80;96.30;;;;;;4996779;28;20964;-79
2020/12/06 08:20:38;;;;;;;16.17;10.40;;;6.80;96.30;;;;;;4996071;28;20520;-78
2020/12/06 08:23:03;;;;;;;12.20;9.30;;;6.90;96.30;;;;;;4995590;28;20496;-79
2020/12/06 08:25:31;;;;;;;14.97;10.40;;;6.90;96.30;;;;;;4995974;28;20169;-79
2020/12/06 08:27:59;;;;;;;12.50;9.30;;;6.90;96.30;;;;;;4994306;28;20184;-79
2020/12/06 08:30:27;;;;;;;12.57;8.97;;;7.00;96.30;;;;;;4995941;28;20427;-78
2020/12/06 08:32:53;;;;;;;16.50;11.37;;;7.10;96.30;;;;;;4995361;28;20448;-80
2020/12/06 08:35:19;;;;;;;40.90;24.10;;;7.20;96.30;;;;;;4995091;28;20412;-79
2020/12/06 08:37:44;;;;;;;28.60;18.43;;;7.30;96.30;;;;;;4995654;28;20516;-79
2020/12/06 08:40:11;;;;;;;12.50;9.63;;;7.50;96.30;;;;;;4995383;28;20588;-79
2020/12/06 08:42:36;;;;;;;12.27;9.23;;;7.60;96.30;;;;;;4995270;28;20200;-79
2020/12/06 08:45:03;;;;;;;31.33;17.97;;;7.60;96.30;;;;;;4995506;28;20452;-79
2020/12/06 08:47:45;;;;;;;14.73;11.53;;;7.60;96.30;;;;;;4994337;28;20182;-78
2020/12/06 08:50:13;;;;;;;11.20;9.90;;;7.60;96.30;;;;;;4995224;28;20512;-80
2020/12/06 08:52:39;;;;;;;11.40;8.90;;;7.60;96.30;;;;;;4995786;28;20434;-78
2020/12/06 08:55:24;;;;;;;11.27;9.13;;;7.60;96.30;;;;;;4996006;28;20908;-80
2020/12/06 08:57:50;;;;;;;14.10;9.73;;;7.60;96.30;;;;;;4995991;28;20480;-78
2020/12/06 09:00:15;;;;;;;12.77;9.47;;;7.60;96.30;;;;;;4995559;28;20463;-79
2020/12/06 09:02:41;;;;;;;15.03;10.63;;;7.70;96.30;;;;;;4995051;28;20818;-78
2020/12/06 09:05:07;;;;;;;11.53;9.50;;;7.80;96.30;;;;;;4995764;28;20182;-77
2020/12/06 09:07:32;;;;;;;12.10;7.87;;;7.80;96.30;;;;;;4995602;28;20228;-79
2020/12/06 09:09:58;;;;;;;16.40;8.80;;;8.00;96.30;;;;;;4994390;28;20170;-78
2020/12/06 09:12:23;;;;;;;14.70;10.57;;;8.00;96.30;;;;;;4994225;28;20564;-78
2020/12/06 09:14:49;;;;;;;13.50;9.43;;;8.10;96.30;;;;;;4995824;28;20220;-79
2020/12/06 09:17:14;;;;;;;15.30;7.30;;;8.20;96.30;;;;;;4995484;28;20201;-79
2020/12/06 09:19:40;;;;;;;13.50;10.27;;;8.20;96.30;;;;;;4995346;28;20181;-79
2020/12/06 09:22:05;;;;;;;10.37;7.50;;;8.20;96.30;;;;;;4995627;28;20576;-79
2020/12/06 09:24:30;;;;;;;12.83;9.27;;;8.10;96.30;;;;;;4996595;28;20178;-79
2020/12/06 09:26:56;;;;;;;11.10;9.60;;;8.10;96.30;;;;;;4996756;28;20190;-78
2020/12/06 09:29:21;;;;;;;11.63;8.37;;;8.10;96.30;;;;;;4996494;28;20525;-79
2020/12/06 09:31:47;;;;;;;11.40;8.40;;;8.10;96.30;;;;;;4995602;28;20549;-79
2020/12/06 09:34:12;;;;;;;12.40;6.90;;;8.10;96.30;;;;;;4995365;28;20177;-78
2020/12/06 09:36:42;;;;;;;10.87;8.67;;;8.20;96.30;;;;;;4994313;28;20193;-79
2020/12/06 09:39:08;;;;;;;7.47;5.53;;;8.30;96.30;;;;;;4995579;28;20252;-79
2020/12/06 09:41:34;;;;;;;15.57;9.20;;;8.30;96.30;;;;;;4994478;28;20476;-79
2020/12/06 09:44:03;;;;;;;12.50;7.83;;;8.30;96.30;;;;;;4993089;28;20593;-77
2020/12/06 09:46:29;;;;;;;10.23;8.40;;;8.30;96.30;;;;;;4994369;28;20177;-79
2020/12/06 09:48:54;;;;;;;10.47;8.13;;;8.20;96.30;;;;;;4995202;28;20425;-77
2020/12/06 09:51:20;;;;;;;17.23;8.00;;;8.20;96.30;;;;;;4994956;28;20333;-77
2020/12/06 09:53:48;;;;;;;9.50;8.33;;;8.20;96.30;;;;;;4994646;28;20511;-79
2020/12/06 09:56:13;;;;;;;13.07;8.87;;;8.20;96.30;;;;;;4995054;28;20177;-77
2020/12/06 09:58:39;;;;;;;12.27;9.13;;;8.20;96.30;;;;;;4994533;28;20408;-77
2020/12/06 10:01:04;;;;;;;14.83;9.53;;;8.20;96.30;;;;;;4994667;28;20284;-76
2020/12/06 10:03:30;;;;;;;12.10;8.63;;;8.20;96.30;;;;;;4994674;28;20178;-78
2020/12/06 10:05:55;;;;;;;10.43;6.97;;;8.20;96.30;;;;;;4994869;28;20182;-76
2020/12/06 10:08:22;;;;;;;13.03;9.07;;;8.20;96.30;;;;;;4994080;28;20178;-77
2020/12/06 10:10:48;;;;;;;12.07;7.90;;;8.30;96.30;;;;;;4994300;28;20194;-77
2020/12/06 10:13:13;;;;;;;12.50;8.40;;;8.30;96.30;;;;;;4993872;28;20967;-77
2020/12/06 10:15:39;;;;;;;11.63;8.90;;;8.20;96.30;;;;;;4993812;28;20530;-77
2020/12/06 10:18:05;;;;;;;11.40;7.87;;;8.30;96.30;;;;;;4993769;28;20228;-77
2020/12/06 10:20:31;;;;;;;14.80;10.30;;;8.10;96.30;;;;;;4993616;28;20436;-77
2020/12/06 10:22:56;;;;;;;11.97;8.60;;;8.20;96.30;;;;;;4993834;28;20174;-78
2020/12/06 10:25:22;;;;;;;12.20;9.43;;;8.20;96.30;;;;;;4993821;28;20201;-77
2020/12/06 10:27:47;;;;;;;11.20;9.53;;;8.20;96.30;;;;;;4994175;28;20185;-78
2020/12/06 10:30:13;;;;;;;12.40;9.53;;;8.20;96.30;;;;;;4993492;28;20231;-79
2020/12/06 10:32:38;;;;;;;12.50;9.63;;;8.20;96.30;;;;;;4993861;28;20250;-75
2020/12/06 10:35:04;;;;;;;10.50;8.27;;;8.10;96.30;;;;;;4994543;28;20173;-75
2020/12/06 10:37:29;;;;;;;12.00;9.03;;;8.10;96.30;;;;;;4998088;28;20288;-76
2020/12/06 10:39:55;;;;;;;11.80;9.47;;;8.10;96.30;;;;;;4994989;28;20176;-80
2020/12/06 10:42:20;;;;;;;14.80;9.93;;;8.10;96.30;;;;;;4994495;28;20220;-79
2020/12/06 10:44:46;;;;;;;12.67;7.80;;;8.20;96.30;;;;;;4993505;28;20197;-79
2020/12/06 10:47:11;;;;;;;8.90;7.30;;;8.30;96.30;;;;;;4995088;28;20177;-76
2020/12/06 10:49:43;;;;;;;11.43;8.23;;;8.30;96.30;;;;;;4994992;28;20177;-76
2020/12/06 10:52:09;;;;;;;9.77;8.07;;;8.20;96.30;;;;;;4993888;28;20202;-77
2020/12/06 10:54:35;;;;;;;12.77;8.40;;;8.20;96.30;;;;;;4993972;28;20428;-78
2020/12/06 10:57:00;;;;;;;16.00;10.57;;;8.20;96.30;;;;;;4993598;28;20453;-80
2020/12/06 10:59:27;;;;;;;11.47;8.07;;;8.30;96.30;;;;;;4992101;28;20173;-79
2020/12/06 11:01:52;;;;;;;12.70;8.93;;;8.20;96.30;;;;;;4992719;28;20228;-77
2020/12/06 11:04:18;;;;;;;8.30;6.97;;;8.20;96.30;;;;;;4993233;28;20413;-77
2020/12/06 11:06:44;;;;;;;10.17;8.87;;;8.60;96.30;;;;;;4993850;28;20174;-79
2020/12/06 11:09:09;;;;;;;9.97;8.20;;;8.70;96.30;;;;;;4993860;28;20409;-79
2020/12/06 11:11:35;;;;;;;12.10;9.23;;;8.70;96.30;;;;;;4993726;28;20559;-79
2020/12/06 11:14:00;;;;;;;10.50;8.43;;;8.70;96.30;;;;;;5003278;23;20627;-73
2020/12/06 11:16:26;;;;;;;9.90;7.67;;;9.00;96.30;;;;;;4952390;28;20182;-73
2020/12/06 11:18:51;;;;;;;12.50;7.87;;;9.20;96.30;;;;;;4954052;28;20225;-73
2020/12/06 11:21:18;;;;;;;15.30;8.93;;;9.00;96.30;;;;;;4953795;28;20166;-75
2020/12/06 11:23:45;;;;;;;10.07;7.90;;;9.10;96.30;;;;;;4953361;28;20195;-73
2020/12/06 11:26:12;;;;;;;7.90;6.93;;;9.00;96.30;;;;;;4954187;28;20406;-73
2020/12/06 11:28:37;;;;;;;10.37;8.83;;;9.00;96.30;;;;;;4953985;28;20473;-72
2020/12/06 11:31:03;;;;;;;10.83;7.80;;;9.10;96.30;;;;;;4953969;28;20418;-73
2020/12/06 11:33:28;;;;;;;13.53;8.27;;;9.10;96.30;;;;;;4953461;28;20282;-72
2020/12/06 11:35:54;;;;;;;9.67;8.27;;;9.40;96.30;;;;;;4953810;28;20616;-73
2020/12/06 11:38:19;;;;;;;13.73;11.83;;;9.50;96.30;;;;;;4953727;28;20284;-73
2020/12/06 11:40:45;;;;;;;12.83;9.37;;;9.40;96.30;;;;;;4953688;28;20171;-74
2020/12/06 11:43:11;;;;;;;10.90;7.80;;;9.40;96.30;;;;;;4951619;28;20183;-75
2020/12/06 11:45:36;;;;;;;9.90;8.27;;;9.20;96.30;;;;;;4951882;28;20179;-73
2020/12/06 11:48:03;;;;;;;12.93;8.53;;;9.20;96.30;;;;;;4949884;28;20187;-73
2020/12/06 11:50:28;;;;;;;12.50;9.20;;;9.30;96.30;;;;;;4953484;28;20497;-73
2020/12/06 11:52:54;;;;;;;11.20;8.00;;;9.40;96.30;;;;;;4952154;29;20426;-73
2020/12/06 11:55:20;;;;;;;12.60;9.77;;;9.40;96.30;;;;;;4953089;28;20250;-74
2020/12/06 11:57:45;;;;;;;12.40;9.00;;;9.60;96.30;;;;;;4952847;28;20207;-73
2020/12/06 12:00:11;;;;;;;16.17;10.73;;;9.60;96.30;;;;;;4953534;28;20270;-73
2020/12/06 12:02:36;;;;;;;9.70;6.63;;;9.60;96.30;;;;;;4967632;28;20183;-73
2020/12/06 12:05:02;;;;;;;10.30;8.43;;;9.60;96.30;;;;;;4972809;28;20194;-74
2020/12/06 12:07:27;;;;;;;10.40;8.20;;;9.60;96.30;;;;;;4956341;28;20666;-73
2020/12/06 12:09:53;;;;;;;15.10;8.47;;;9.50;96.30;;;;;;4953497;28;20183;-73
2020/12/06 12:12:18;;;;;;;10.50;8.33;;;9.40;96.30;;;;;;4956451;28;20215;-73
2020/12/06 12:14:44;;;;;;;9.37;7.23;;;9.50;96.30;;;;;;4956223;28;20246;-74
2020/12/06 12:17:10;;;;;;;9.03;7.93;;;9.40;96.30;;;;;;4955749;28;20195;-73
2020/12/06 12:19:35;;;;;;;11.00;7.63;;;9.40;96.30;;;;;;4956781;28;20665;-73
2020/12/06 12:22:01;;;;;;;12.07;9.57;;;9.50;96.30;;;;;;4956745;28;20179;-73
2020/12/06 12:24:27;;;;;;;9.00;7.20;;;9.40;96.30;;;;;;4956102;28;20213;-74
2020/12/06 12:27:00;;;;;;;11.40;7.27;;;9.40;96.30;;;;;;4956892;28;20538;-73
2020/12/06 12:29:27;;;;;;;13.27;8.17;;;9.30;96.30;;;;;;4956815;28;20183;-73
2020/12/06 12:31:52;;;;;;;9.53;6.20;;;9.30;96.30;;;;;;4956500;28;20776;-73
2020/12/06 12:34:18;;;;;;;8.97;6.90;;;9.50;96.30;;;;;;4956698;28;20937;-73
2020/12/06 12:36:44;;;;;;;8.47;6.80;;;9.50;96.30;;;;;;4956420;28;20278;-74
2020/12/06 12:39:10;;;;;;;14.70;9.00;;;9.50;96.30;;;;;;4956508;28;20175;-74
2020/12/06 12:41:36;;;;;;;10.00;7.50;;;9.50;96.30;;;;;;4956129;29;20457;-73
2020/12/06 12:44:03;;;;;;;10.03;7.20;;;9.40;96.30;;;;;;4956543;28;20534;-74
2020/12/06 12:46:30;;;;;;;11.03;7.53;;;9.40;96.30;;;;;;4956445;28;20179;-74
2020/12/06 12:48:55;;;;;;;7.63;6.63;;;9.30;96.30;;;;;;4956455;28;20414;-73
2020/12/06 12:51:21;;;;;;;8.97;6.10;;;9.40;96.30;;;;;;4956417;28;20402;-73
2020/12/06 12:53:47;;;;;;;9.77;7.30;;;9.30;96.30;;;;;;4954901;29;20226;-73
2020/12/06 12:56:12;;;;;;;11.10;7.57;;;9.30;96.30;;;;;;4956394;28;20519;-73
2020/12/06 12:58:38;;;;;;;10.33;7.03;;;9.30;96.30;;;;;;4956280;28;20685;-74
2020/12/06 13:01:03;;;;;;;8.43;5.00;;;9.40;96.30;;;;;;4956267;28;20191;-73
2020/12/06 13:03:28;;;;;;;14.97;7.53;;;9.40;96.30;;;;;;4955945;28;20693;-73
2020/12/06 13:05:54;;;;;;;8.53;6.50;;;9.40;96.30;;;;;;4955273;28;20189;-74
2020/12/06 13:08:19;;;;;;;10.70;6.40;;;9.40;96.30;;;;;;4956152;28;20179;-73
2020/12/06 13:10:45;;;;;;;9.10;6.30;;;9.50;96.30;;;;;;4956102;28;20516;-73
2020/12/06 13:13:10;;;;;;;10.67;7.37;;;9.50;96.30;;;;;;4955654;28;20178;-74
2020/12/06 13:15:36;;;;;;;11.67;7.00;;;9.50;96.30;;;;;;4956052;28;20183;-74
2020/12/06 13:18:03;;;;;;;11.37;6.70;;;9.40;96.30;;;;;;4955952;28;20238;-74
2020/12/06 13:20:29;;;;;;;11.00;7.50;;;9.30;96.30;;;;;;4955813;28;20635;-75
2020/12/06 13:22:54;;;;;;;10.97;7.47;;;9.30;96.30;;;;;;4955483;28;20415;-73
2020/12/06 13:25:20;;;;;;;12.70;8.07;;;9.30;96.30;;;;;;4955863;28;20201;-73
2020/12/06 13:27:45;;;;;;;9.07;7.10;;;9.30;96.30;;;;;;4955826;28;20573;-73
2020/12/06 13:30:11;;;;;;;11.53;7.50;;;9.30;96.30;;;;;;4955797;28;20258;-75
2020/12/06 13:32:36;;;;;;;10.10;7.20;;;9.20;96.30;;;;;;4955434;28;20181;-73
2020/12/06 13:35:02;;;;;;;17.07;12.50;;;9.20;96.30;;;;;;4955651;28;20726;-73
2020/12/06 13:37:28;;;;;;;11.50;8.90;;;9.10;96.30;;;;;;4955567;28;20207;-73
2020/12/06 13:39:54;;;;;;;9.70;8.20;;;9.00;96.30;;;;;;4955851;28;20927;-74
2020/12/06 13:42:19;;;;;;;18.67;13.20;;;9.10;96.30;;;;;;4955341;28;20194;-75
2020/12/06 13:44:45;;;;;;;44.53;30.20;;;9.10;96.30;;;;;;4955279;28;20226;-73
2020/12/06 13:47:10;;;;;;;25.07;13.73;;;9.10;96.30;;;;;;4955277;28;20175;-73
2020/12/06 13:49:40;;;;;;;9.87;7.83;;;9.10;96.30;;;;;;4955262;28;20187;-74
2020/12/06 13:52:09;;;;;;;11.03;7.53;;;9.20;96.30;;;;;;4954946;28;20230;-74
2020/12/06 13:54:35;;;;;;;15.17;9.97;;;9.20;96.30;;;;;;4955083;28;20877;-73
2020/12/06 13:57:01;;;;;;;8.67;7.17;;;9.20;96.30;;;;;;4953731;28;20470;-73
2020/12/06 13:59:26;;;;;;;11.97;8.03;;;9.40;96.30;;;;;;4955047;28;20798;-73
2020/12/06 14:01:52;;;;;;;10.53;7.07;;;9.50;96.30;;;;;;4954736;28;20179;-73
2020/12/06 14:04:17;;;;;;;11.70;8.20;;;9.50;96.30;;;;;;4955003;28;20195;-73
2020/12/06 14:06:43;;;;;;;9.90;6.80;;;9.50;96.30;;;;;;4955048;28;20584;-73
2020/12/06 14:09:08;;;;;;;7.40;6.10;;;9.50;96.30;;;;;;4953829;28;20691;-73
2020/12/06 14:11:34;;;;;;;9.50;6.60;;;9.50;96.30;;;;;;4954767;28;20190;-73
2020/12/06 14:13:59;;;;;;;8.40;6.57;;;9.40;96.30;;;;;;4954740;28;20210;-73
2020/12/06 14:16:25;;;;;;;7.00;5.67;;;9.40;96.30;;;;;;4953544;28;20665;-74
2020/12/06 14:18:50;;;;;;;17.70;6.60;;;9.40;96.30;;;;;;4954785;28;20238;-74
2020/12/06 14:21:19;;;;;;;9.30;7.70;;;9.30;96.30;;;;;;4954787;28;20238;-73
2020/12/06 14:23:46;;;;;;;10.13;8.60;;;9.20;96.30;;;;;;4954740;28;20602;-73
2020/12/06 14:26:12;;;;;;;9.80;8.80;;;9.20;96.30;;;;;;4954739;28;20403;-73
2020/12/06 14:28:37;;;;;;;15.53;9.93;;;9.20;96.30;;;;;;4953350;28;20782;-74
2020/12/06 14:31:04;;;;;;;14.30;8.60;;;9.10;96.30;;;;;;4953360;28;20597;-73
2020/12/06 14:33:30;;;;;;;10.73;8.47;;;9.10;96.30;;;;;;4953629;28;20211;-74
2020/12/06 14:35:55;;;;;;;13.80;9.90;;;9.00;96.30;;;;;;4953350;28;20414;-74
2020/12/06 14:38:21;;;;;;;9.97;8.03;;;8.90;96.30;;;;;;4953272;28;20293;-73
2020/12/06 14:40:46;;;;;;;13.13;10.83;;;8.90;96.30;;;;;;4953234;28;20174;-73
2020/12/06 14:43:12;;;;;;;11.90;8.40;;;8.90;96.30;;;;;;4954191;28;20175;-73
2020/12/06 14:45:37;;;;;;;15.10;12.43;;;8.80;96.30;;;;;;4952982;28;20266;-74
2020/12/06 14:48:04;;;;;;;14.37;12.50;;;8.70;96.30;;;;;;4954426;28;20594;-74
2020/12/06 14:50:30;;;;;;;11.40;10.07;;;8.80;96.30;;;;;;4954267;28;20175;-73
2020/12/06 14:52:55;;;;;;;12.03;10.77;;;8.70;96.30;;;;;;4952848;28;20437;-73
2020/12/06 14:55:21;;;;;;;18.10;14.17;;;8.60;96.30;;;;;;4954090;28;20194;-74
2020/12/06 14:57:47;;;;;;;13.37;11.97;;;8.60;96.30;;;;;;4954005;29;20520;-73
2020/12/06 15:00:12;;;;;;;13.50;11.57;;;8.50;96.30;;;;;;4952746;28;20175;-73
2020/12/06 15:02:38;;;;;;;15.93;14.23;;;8.40;96.30;;;;;;4953740;28;20579;-74
2020/12/06 15:05:04;;;;;;;16.80;13.17;;;8.40;96.30;;;;;;4952599;28;20199;-73
2020/12/06 15:07:29;;;;;;;11.63;9.93;;;8.40;96.30;;;;;;4953980;28;20171;-73
2020/12/06 15:09:54;;;;;;;15.63;12.30;;;8.30;96.30;;;;;;4954007;28;20642;-73
2020/12/06 15:12:20;;;;;;;14.03;12.53;;;8.30;96.30;;;;;;4953744;28;20181;-75
2020/12/06 15:14:46;;;;;;;14.47;11.17;;;8.20;96.30;;;;;;4952707;29;20260;-73
2020/12/06 15:17:12;;;;;;;13.30;11.80;;;8.20;96.30;;;;;;4954068;28;20203;-73
2020/12/06 15:19:38;;;;;;;16.43;13.87;;;8.20;96.30;;;;;;4953932;28;20483;-73
2020/12/06 15:22:03;;;;;;;14.97;12.70;;;8.20;96.30;;;;;;4953873;28;20411;-73
2020/12/06 15:24:29;;;;;;;15.20;11.23;;;8.20;96.30;;;;;;4953939;28;20202;-73
2020/12/06 15:26:55;;;;;;;12.40;10.70;;;8.20;96.30;;;;;;4953965;29;20182;-75
2020/12/06 15:29:21;;;;;;;13.20;11.23;;;8.20;96.30;;;;;;4952737;28;20170;-73
2020/12/06 15:31:46;;;;;;;16.60;13.00;;;8.20;96.30;;;;;;4953663;28;20174;-74
2020/12/06 15:34:12;;;;;;;22.93;12.80;;;8.10;96.30;;;;;;4953909;28;20778;-73
2020/12/06 15:36:37;;;;;;;13.60;11.73;;;8.10;96.30;;;;;;4952531;28;20639;-74
2020/12/06 15:39:03;;;;;;;13.47;9.27;;;8.10;96.30;;;;;;4953899;28;20167;-73
2020/12/06 15:41:29;;;;;;;15.63;13.77;;;8.00;96.30;;;;;;4953755;28;20179;-73
2020/12/06 15:43:55;;;;;;;23.17;18.10;;;8.00;96.30;;;;;;4953980;28;20194;-73
2020/12/06 15:46:21;;;;;;;12.80;11.03;;;8.10;96.30;;;;;;4957716;28;20163;-73
2020/12/06 15:48:46;;;;;;;13.20;11.80;;;8.00;96.30;;;;;;4957550;28;20558;-74
2020/12/06 15:51:13;;;;;;;15.03;13.43;;;8.00;96.30;;;;;;4956345;28;20226;-73
2020/12/06 15:53:39;;;;;;;16.93;11.50;;;8.00;96.30;;;;;;4957269;28;20605;-73
2020/12/06 15:56:07;;;;;;;13.03;11.43;;;8.00;96.30;;;;;;4957468;28;20477;-73
2020/12/06 15:58:37;;;;;;;15.97;13.53;;;8.00;96.30;;;;;;4957029;28;20293;-73
2020/12/06 16:01:09;;;;;;;16.80;10.70;;;7.90;96.30;;;;;;4957301;28;20414;-73
2020/12/06 16:03:39;;;;;;;12.60;11.03;;;8.00;96.30;;;;;;4956948;28;20430;-72
2020/12/06 16:06:06;;;;;;;13.47;12.07;;;7.90;96.30;;;;;;4957122;28;20414;-73
2020/12/06 16:08:32;;;;;;;12.20;10.37;;;7.80;96.30;;;;;;4956976;28;20438;-72
2020/12/06 16:10:59;;;;;;;13.13;11.63;;;7.80;96.30;;;;;;4957017;28;20449;-72
2020/12/06 16:13:25;;;;;;;14.77;12.73;;;7.80;96.30;;;;;;4956332;29;21025;-72
2020/12/06 16:15:50;;;;;;;11.27;9.37;;;7.80;96.30;;;;;;4956978;29;20488;-73
2020/12/06 16:18:16;;;;;;;13.60;11.83;;;7.90;96.30;;;;;;4956842;28;20982;-73
2020/12/06 16:20:41;;;;;;;12.17;9.57;;;7.80;96.30;;;;;;4956863;28;20263;-72
2020/12/06 16:23:07;;;;;;;13.03;11.73;;;7.80;96.30;;;;;;4955250;28;20178;-72
2020/12/06 16:25:33;;;;;;;15.80;12.97;;;7.80;96.30;;;;;;4956729;28;20645;-72
2020/12/06 16:27:58;;;;;;;14.53;11.23;;;7.80;96.30;;;;;;4956775;28;20501;-73
2020/12/06 16:30:24;;;;;;;15.70;10.70;;;7.70;96.30;;;;;;4956823;28;20175;-72
2020/12/06 16:32:50;;;;;;;14.63;9.90;;;7.70;96.30;;;;;;4955062;29;20545;-72
2020/12/06 16:35:15;;;;;;;16.00;12.73;;;7.70;96.30;;;;;;4956692;28;20206;-72
2020/12/06 16:37:41;;;;;;;16.03;12.20;;;7.70;96.30;;;;;;4956557;28;20257;-72
2020/12/06 16:40:08;;;;;;;16.57;11.90;;;7.70;96.30;;;;;;4956498;28;20175;-72